Kezdőlap
METAR-TAF:

METAR-TAF

Repülőterek :

Nouakchott, Mauritánia

földrajzi szélesség: 18-18-36N, földrajzi hosszúság: 015-58-11W, magasság: 3 m

Jelenlegi meteorológiai megfigyelések

A jelentés 35 perccel ezelõtt készült, 13:30 UTC
Kelet-északkeleti szél 12 kt, észak-északkeleti és keleti között változik
Hőmérséklet 28°C
Páratartalom 22%
Légköri nyomás 1014 hPa
Látótávolság: 8000 m

METAR: GQNO 171330Z 06012KT 030V090 8000 NSC 28/04 Q1014 NOSIG

Idő: 14:05 (14:05 UTC)

Előrejelzés

A jelentés 3 órával és 5 perccel ezelõtt készült, 11:00 UTC
Az előrejelzés 17-én 12 óra UTC és 18-én 18 óra UTC között érvényes
Északkeleti szél 16 kt
Látótávolság: 7000 m
17-én 14 óra UTC és 17-én 17 óra UTC között fokozatosan kialakuló
Észak-északnyugati szél 14 kt
18-én 07 óra UTC és 18-én 09 óra UTC között fokozatosan kialakuló
Északkeleti szél 14 kt

TAF: GQNO 171100Z 1712/1818 04016KT 7000 NSC BECMG 1714/1717 33014KT BECMG 1807/1809 04014KT

Meteorológiai megfigyelések és előrejelzések több, mint 4000 repülőtéren (METAR és TAF jelentéseket).

A térképen piros és sárga pontok jelzik az elérhető meteorológiai állomásokat.

Mozgassa az egeret a pont fölött, hogy megjelenjen az állomás neve.

Azután kattintson az időjárási megfigyelések és előrejelzések megtekintéséhez.

A térkép megváltoztatása: kattintson a fekete keresztel jelölt zöld gombra ráközelítéshez, a vonallal jelölt zöld gombra távolításhoz, vagy a zöld nyilakra a szomszédos térképek eléréséhez.


METAR-TAF: